ICT,Max TemperatureF,Mean TemperatureF,Min TemperatureF,Max Dew PointF,MeanDew PointF,Min DewpointF,Max Humidity, Mean Humidity, Min Humidity, Max Sea Level PressureIn, Mean Sea Level PressureIn, Min Sea Level PressureIn, Max VisibilityMiles, Mean VisibilityMiles, Min VisibilityMiles, Max Wind SpeedMPH, Mean Wind SpeedMPH, Max Gust SpeedMPH,PrecipitationIn, CloudCover, Events, WindDirDegrees
2013-10-1,89,84,78,76,73,70,89,75,52,29.80,29.73,29.65,6,6,1,10,5,,0.00,4,Rain,223
2013-10-2,89,82,75,76,74,72,94,79,58,29.86,29.79,29.71,6,6,0,16,4,,0.00,4,Rain-Thunderstorm,296
2013-10-3,89,83,77,77,74,72,94,80,55,29.83,29.78,29.71,6,5,1,12,5,,0.00,5,Rain-Thunderstorm,270
2013-10-4,87,82,78,75,73,70,89,72,58,29.80,29.73,29.65,6,6,5,48,10,,0.00,3,,213
2013-10-5,87,82,78,77,75,73,89,78,66,29.77,29.69,29.62,6,6,5,15,7,,0.00,3,Rain,162
2013-10-6,86,82,78,77,76,75,89,85,70,29.80,29.72,29.65,6,5,0,13,6,,0.00,3,Rain,164
2013-10-7,82,80,77,75,75,73,94,83,74,29.83,29.77,29.71,6,6,6,12,6,,0.00,4,Rain,169
2013-10-8,91,84,77,75,74,70,94,77,49,29.83,29.78,29.68,6,5,0,16,5,,0.00,4,Rain-Thunderstorm,202
2013-10-9,89,84,78,77,74,72,89,73,55,29.86,29.81,29.74,6,6,5,10,4,,0.00,3,Rain,284
2013-10-10,89,84,78,77,74,70,89,70,55,29.89,29.82,29.74,6,6,6,9,5,,0.00,3,,328
2013-10-11,89,86,82,77,72,70,84,63,52,29.86,29.78,29.71,6,6,6,10,6,,0.00,1,,358
2013-10-12,91,84,78,77,73,68,84,66,46,29.83,29.75,29.68,6,6,2,9,5,,0.00,3,,133
2013-10-13,87,82,78,77,74,72,84,71,58,29.83,29.74,29.68,6,6,5,8,5,,0.00,5,Rain,341
2013-10-14,93,86,78,77,74,70,89,67,49,29.77,29.71,29.62,6,6,6,12,6,,0.00,2,,313
2013-10-15,91,84,77,90,75,72,94,72,52,29.74,29.69,29.62,6,6,4,22,7,,0.00,4,Rain-Thunderstorm,247
2013-10-16,87,84,80,77,75,70,89,77,62,29.83,29.77,29.68,6,6,5,20,10,,0.00,5,,187
2013-10-17,91,84,78,77,74,72,89,70,52,29.89,29.80,29.74,6,6,6,9,5,,0.00,2,Rain-Thunderstorm,191
2013-10-18,89,82,74,77,75,73,92,76,59,29.89,29.83,29.74,6,6,3,20,4,,0.31,4,Rain-Thunderstorm,273
2013-10-19,87,82,77,75,73,70,89,72,55,29.92,29.84,29.77,6,6,4,39,6,,0.00,3,,332
2013-10-20,89,84,78,77,72,68,83,64,49,29.86,29.81,29.74,6,6,6,18,9,,0.00,2,,24
2013-10-21,89,82,75,75,72,70,89,67,55,29.87,29.81,29.74,6,6,6,13,7,,0.00,2,,33
2013-10-22,91,86,80,75,72,68,79,63,46,29.89,29.83,29.77,6,6,6,14,8,,0.00,2,,18
2013-10-23,89,84,80,75,70,66,74,60,49,29.89,29.83,29.77,6,6,6,17,8,,0.00,3,,28
2013-10-24,89,84,80,75,71,70,79,62,52,29.89,29.82,29.74,6,6,6,9,5,,0.00,2,,360
2013-10-25,89,84,78,75,73,70,83,68,52,29.89,29.84,29.77,6,6,5,10,4,,0.00,2,,355
2013-10-26,87,82,77,75,74,72,89,77,62,29.95,29.88,29.83,6,6,2,9,5,,0.00,4,,272
2013-10-27,89,84,78,75,71,64,84,65,46,29.92,29.86,29.80,6,6,6,10,5,,0.00,1,,10
2013-10-28,89,84,78,73,69,63,83,59,40,29.95,29.88,29.80,6,6,6,8,5,,0.00,2,,360
2013-10-29,89,84,78,73,71,68,83,60,49,29.95,29.88,29.80,6,6,6,12,5,,0.00,2,,343
2013-10-30,89,84,78,77,74,72,84,72,59,29.95,29.85,29.77,6,6,3,10,5,,0.00,2,Rain,239
2013-10-31,91,84,78,77,72,68,89,67,52,29.92,29.85,29.77,6,6,5,10,5,,0.00,2,Rain,350